createdAt,value
2019-03-26T00:00:16.305Z,18.85
2019-03-26T00:02:45.477Z,26.27
2019-03-26T00:05:14.582Z,28.65
2019-03-26T00:08:02.484Z,20.30
2019-03-26T00:10:43.305Z,25.05
2019-03-26T00:16:21.633Z,21.85
2019-03-26T00:18:52.449Z,26.48
2019-03-26T00:21:21.821Z,20.70
2019-03-26T00:23:51.115Z,19.62
2019-03-26T00:26:20.439Z,21.42
2019-03-26T00:28:51.094Z,19.90
2019-03-26T00:31:22.235Z,16.32
2019-03-26T00:33:52.824Z,27.05
2019-03-26T00:36:22.045Z,25.77
2019-03-26T00:38:51.178Z,20.88
2019-03-26T00:41:20.412Z,20.43
2019-03-26T00:43:49.556Z,27.25
2019-03-26T00:46:18.761Z,21.35
2019-03-26T00:48:47.995Z,23.75
2019-03-26T00:51:17.135Z,16.05
2019-03-26T00:53:46.288Z,27.93
2019-03-26T00:56:15.433Z,25.37
2019-03-26T00:58:44.569Z,26.07
2019-03-26T01:01:13.734Z,22.10
2019-03-26T01:03:42.889Z,20.60
2019-03-26T01:06:12.427Z,19.35
2019-03-26T01:08:41.537Z,28.40
2019-03-26T01:11:10.695Z,17.80
2019-03-26T01:13:39.869Z,15.90
2019-03-26T01:16:09.066Z,24.65
2019-03-26T01:18:38.266Z,26.12
2019-03-26T01:21:07.508Z,24.00
2019-03-26T01:23:36.760Z,25.00
2019-03-26T01:26:06.026Z,14.68
2019-03-26T01:28:35.225Z,14.35
2019-03-26T01:31:04.506Z,17.62
2019-03-26T01:33:33.653Z,24.25
2019-03-26T01:36:02.824Z,19.07
2019-03-26T01:38:31.988Z,16.15
2019-03-26T01:41:01.156Z,21.50
2019-03-26T01:43:30.302Z,20.65
2019-03-26T01:45:59.470Z,24.72
2019-03-26T01:48:28.613Z,19.85
2019-03-26T01:50:57.776Z,24.40
2019-03-26T01:53:26.868Z,21.25
2019-03-26T01:55:56.090Z,19.57
2019-03-26T01:58:25.226Z,35.50
2019-03-26T02:00:54.410Z,24.82
2019-03-26T02:03:23.507Z,19.92
2019-03-26T02:05:54.665Z,22.00
2019-03-26T02:08:23.486Z,20.10
2019-03-26T02:10:52.654Z,21.75
2019-03-26T02:13:21.786Z,25.25
2019-03-26T02:15:50.998Z,22.98
2019-03-26T02:18:20.159Z,18.17
2019-03-26T02:20:49.306Z,25.37
2019-03-26T02:23:18.473Z,22.67
2019-03-26T02:25:47.879Z,19.40
2019-03-26T02:28:17.128Z,22.87
2019-03-26T02:30:46.245Z,19.65
2019-03-26T02:33:15.443Z,19.42
2019-03-26T02:35:44.845Z,23.60
2019-03-26T02:38:14.087Z,19.37
2019-03-26T02:40:45.110Z,14.70
2019-03-26T02:43:14.207Z,18.05
2019-03-26T02:45:43.498Z,18.05
2019-03-26T02:48:12.664Z,16.65
2019-03-26T02:50:42.147Z,16.20
2019-03-26T02:53:11.622Z,17.57
2019-03-26T02:55:40.765Z,13.90
2019-03-26T02:58:09.993Z,20.00
2019-03-26T03:00:39.240Z,15.95
2019-03-26T03:03:08.411Z,13.78
2019-03-26T03:05:37.562Z,18.37
2019-03-26T03:08:06.810Z,12.47
2019-03-26T03:10:36.306Z,17.37
2019-03-26T03:13:05.515Z,18.95
2019-03-26T03:15:34.599Z,19.00
2019-03-26T03:18:03.770Z,13.30
2019-03-26T03:20:38.543Z,19.75
2019-03-26T03:23:07.642Z,16.35
2019-03-26T03:25:36.778Z,15.20
2019-03-26T03:28:05.926Z,9.60
2019-03-26T03:30:35.019Z,10.98
2019-03-26T03:33:04.205Z,18.35
2019-03-26T03:35:33.411Z,21.20
2019-03-26T03:38:02.599Z,17.77
2019-03-26T03:40:31.749Z,19.65
2019-03-26T03:43:00.851Z,18.45
2019-03-26T03:45:30.413Z,14.80
2019-03-26T03:48:00.611Z,16.52
2019-03-26T03:50:30.202Z,18.10
2019-03-26T03:53:01.021Z,16.40
2019-03-26T03:55:31.133Z,21.62
2019-03-26T03:58:00.759Z,17.02
2019-03-26T04:00:35.432Z,18.17
2019-03-26T04:03:05.659Z,22.90
2019-03-26T04:05:35.313Z,17.95
2019-03-26T04:08:04.619Z,16.57
2019-03-26T04:10:33.785Z,16.07
2019-03-26T04:13:02.947Z,18.77
2019-03-26T04:15:34.862Z,16.27
2019-03-26T04:18:04.176Z,22.67
2019-03-26T04:20:35.907Z,17.37
2019-03-26T04:23:05.135Z,21.10
2019-03-26T04:25:34.860Z,19.20
2019-03-26T04:28:04.054Z,20.77
2019-03-26T04:30:33.398Z,23.85
2019-03-26T04:33:02.450Z,18.42
2019-03-26T04:35:31.614Z,23.50
2019-03-26T04:38:00.733Z,19.02
2019-03-26T04:40:29.834Z,13.18
2019-03-26T04:43:01.666Z,21.80
2019-03-26T04:45:30.776Z,18.90
2019-03-26T04:47:59.855Z,20.32
2019-03-26T04:50:28.928Z,13.15
2019-03-26T04:52:59.552Z,20.97
2019-03-26T04:55:28.630Z,15.28
2019-03-26T04:57:57.696Z,21.20
2019-03-26T05:00:26.787Z,13.25
2019-03-26T05:02:55.917Z,15.48
2019-03-26T05:05:24.977Z,20.35
2019-03-26T05:07:54.112Z,15.78
2019-03-26T05:10:23.170Z,12.68
2019-03-26T05:12:52.285Z,10.10
2019-03-26T05:15:21.405Z,12.33
2019-03-26T05:17:50.537Z,10.85
2019-03-26T05:20:19.581Z,10.63
2019-03-26T05:22:48.663Z,16.23
2019-03-26T05:25:17.738Z,15.60
2019-03-26T05:27:46.817Z,17.50
2019-03-26T05:30:16.295Z,16.30
2019-03-26T05:32:45.373Z,15.90
2019-03-26T05:35:14.559Z,14.65
2019-03-26T05:37:43.620Z,9.18
2019-03-26T05:40:12.969Z,9.40
2019-03-26T05:42:42.023Z,10.20
2019-03-26T05:45:12.298Z,8.55
2019-03-26T05:47:41.362Z,7.25
2019-03-26T05:50:10.853Z,8.48
2019-03-26T05:52:40.013Z,11.60
2019-03-26T05:55:09.478Z,8.05
2019-03-26T05:57:38.561Z,9.40
2019-03-26T06:00:11.752Z,10.65
2019-03-26T06:02:40.937Z,9.18
2019-03-26T06:05:10.043Z,15.70
2019-03-26T06:07:39.206Z,11.97
2019-03-26T06:10:09.525Z,15.95
2019-03-26T06:12:38.798Z,13.03
2019-03-26T06:15:09.321Z,11.93
2019-03-26T06:17:38.493Z,13.30
2019-03-26T06:20:09.118Z,18.17
2019-03-26T06:22:38.522Z,18.27
2019-03-26T06:25:08.003Z,16.37
2019-03-26T06:27:37.113Z,17.15
2019-03-26T06:30:10.149Z,16.57
2019-03-26T06:32:39.360Z,16.90
2019-03-26T06:35:10.345Z,14.98
2019-03-26T06:37:39.613Z,21.95
2019-03-26T06:40:10.835Z,15.58
2019-03-26T06:42:43.063Z,10.55
2019-03-26T06:45:12.574Z,10.43
2019-03-26T06:47:41.701Z,12.80
2019-03-26T06:50:12.143Z,17.05
2019-03-26T06:52:42.335Z,11.78
2019-03-26T06:55:13.658Z,8.53
2019-03-26T06:57:42.846Z,11.68
2019-03-26T07:00:13.314Z,11.08
2019-03-26T07:02:43.263Z,11.28
2019-03-26T07:05:12.580Z,13.38
2019-03-26T07:07:41.710Z,9.40
2019-03-26T07:10:11.183Z,11.12
2019-03-26T07:12:40.266Z,9.93
2019-03-26T07:15:10.320Z,15.20
2019-03-26T07:17:39.580Z,14.53
2019-03-26T07:20:09.063Z,10.00
2019-03-26T07:22:38.606Z,12.28
2019-03-26T07:25:09.378Z,11.60
2019-03-26T07:27:42.173Z,13.45
2019-03-26T07:30:13.744Z,15.18
2019-03-26T07:32:42.830Z,14.05
2019-03-26T07:35:12.219Z,13.43
2019-03-26T07:37:45.474Z,13.22
2019-03-26T07:40:12.315Z,14.13
2019-03-26T07:42:41.398Z,10.20
2019-03-26T07:45:10.619Z,12.88
2019-03-26T07:47:39.700Z,15.10
2019-03-26T07:50:08.912Z,11.05
2019-03-26T07:52:38.065Z,10.38
2019-03-26T07:55:08.185Z,14.28
2019-03-26T07:57:37.275Z,14.63
2019-03-26T08:00:08.851Z,13.95
2019-03-26T08:02:38.013Z,13.50
2019-03-26T08:05:08.785Z,12.85
2019-03-26T08:07:37.937Z,12.43
2019-03-26T08:10:08.365Z,11.78
2019-03-26T08:12:37.517Z,11.20
2019-03-26T08:15:08.159Z,11.33
2019-03-26T08:17:37.546Z,11.30
2019-03-26T08:20:08.888Z,10.20
2019-03-26T08:22:37.955Z,12.50
2019-03-26T08:25:07.577Z,15.08
2019-03-26T08:27:36.718Z,11.35
2019-03-26T08:30:08.962Z,12.00
2019-03-26T08:32:38.255Z,10.85
2019-03-26T08:35:07.727Z,9.05
2019-03-26T08:37:36.893Z,12.33
2019-03-26T08:40:09.056Z,13.72
2019-03-26T08:42:38.203Z,17.73
2019-03-26T08:45:08.214Z,13.28
2019-03-26T08:47:37.345Z,11.48
2019-03-26T08:50:08.262Z,12.13
2019-03-26T08:52:37.417Z,12.07
2019-03-26T08:55:09.669Z,9.53
2019-03-26T08:57:38.862Z,8.00
2019-03-26T09:00:10.441Z,11.00
2019-03-26T09:02:39.574Z,7.85
2019-03-26T09:05:08.891Z,16.23
2019-03-26T09:07:37.962Z,8.70
2019-03-26T09:10:10.030Z,15.40
2019-03-26T09:12:39.603Z,10.72
2019-03-26T09:15:14.149Z,10.15
2019-03-26T09:17:44.376Z,15.38
2019-03-26T09:20:13.351Z,14.05
2019-03-26T09:22:42.570Z,8.48
2019-03-26T09:25:12.688Z,9.73
2019-03-26T09:27:41.757Z,12.80
2019-03-26T09:30:12.382Z,6.37
2019-03-26T09:32:41.850Z,7.60
2019-03-26T09:35:11.406Z,7.45
2019-03-26T09:37:40.554Z,6.92
2019-03-26T09:40:10.450Z,5.22
2019-03-26T09:42:39.644Z,9.98
2019-03-26T09:45:10.159Z,11.60
2019-03-26T09:47:39.335Z,8.40
2019-03-26T09:50:10.612Z,6.45
2019-03-26T09:52:39.760Z,8.48
2019-03-26T09:55:09.198Z,10.53
2019-03-26T09:57:38.424Z,5.42
2019-03-26T10:00:09.669Z,9.38
2019-03-26T10:02:38.743Z,6.90
2019-03-26T10:05:09.041Z,7.78
2019-03-26T10:07:38.194Z,8.73
2019-03-26T10:10:09.367Z,10.15
2019-03-26T10:12:38.527Z,9.58
2019-03-26T10:15:09.338Z,13.38
2019-03-26T10:17:38.575Z,11.50
2019-03-26T10:20:08.474Z,12.95
2019-03-26T10:22:38.081Z,9.58
2019-03-26T10:25:10.721Z,11.88
2019-03-26T10:27:38.526Z,12.03
2019-03-26T10:30:08.863Z,10.45
2019-03-26T10:32:38.141Z,11.20
2019-03-26T10:35:07.682Z,11.25
2019-03-26T10:37:36.753Z,8.68
2019-03-26T10:40:07.167Z,11.83
2019-03-26T10:42:36.288Z,11.38
2019-03-26T10:45:06.885Z,11.28
2019-03-26T10:47:36.052Z,8.23
2019-03-26T10:50:06.643Z,8.80
2019-03-26T10:52:35.808Z,9.45
2019-03-26T10:55:06.274Z,11.30
2019-03-26T10:57:35.726Z,9.23
2019-03-26T11:00:06.783Z,8.35
2019-03-26T11:02:35.874Z,11.40
2019-03-26T11:05:06.580Z,12.55
2019-03-26T11:07:35.642Z,9.13
2019-03-26T11:10:06.796Z,9.28
2019-03-26T11:12:35.941Z,8.08
2019-03-26T11:15:10.380Z,9.48
2019-03-26T11:17:39.862Z,10.80
2019-03-26T11:20:10.168Z,9.33
2019-03-26T11:22:39.510Z,9.23
2019-03-26T11:25:12.113Z,6.45
2019-03-26T11:27:40.625Z,10.85
2019-03-26T11:30:10.291Z,8.43
2019-03-26T11:32:39.531Z,7.67
2019-03-26T11:35:09.281Z,8.30
2019-03-26T11:37:39.204Z,11.30
2019-03-26T11:40:10.631Z,10.48
2019-03-26T11:42:43.739Z,11.20
2019-03-26T11:45:13.593Z,9.65
2019-03-26T11:47:42.790Z,10.32
2019-03-26T11:50:12.034Z,15.93
2019-03-26T11:52:43.340Z,14.43
2019-03-26T11:55:12.957Z,12.98
2019-03-26T11:57:42.032Z,14.43
2019-03-26T12:00:15.184Z,9.73
2019-03-26T12:02:44.266Z,10.98
2019-03-26T12:05:13.693Z,15.85
2019-03-26T12:07:43.121Z,16.25
2019-03-26T12:10:13.338Z,11.93
2019-03-26T12:12:42.954Z,11.53
2019-03-26T12:15:12.635Z,13.53
2019-03-26T12:17:41.709Z,8.38
2019-03-26T12:20:13.653Z,10.28
2019-03-26T12:22:42.722Z,8.63
2019-03-26T12:25:11.918Z,13.68
2019-03-26T12:27:41.017Z,12.37
2019-03-26T12:30:10.547Z,10.28
2019-03-26T12:32:40.989Z,11.48
2019-03-26T12:35:13.525Z,11.53
2019-03-26T12:37:42.590Z,10.08
2019-03-26T12:40:12.367Z,9.90
2019-03-26T12:42:42.450Z,8.08
2019-03-26T12:45:11.690Z,11.68
2019-03-26T12:47:40.849Z,6.70
2019-03-26T12:50:10.111Z,4.85
2019-03-26T12:52:39.163Z,6.65
2019-03-26T12:55:08.418Z,7.22
2019-03-26T12:57:37.505Z,5.90
2019-03-26T13:00:07.700Z,6.03
2019-03-26T13:02:40.816Z,4.83
2019-03-26T13:05:07.829Z,6.95
2019-03-26T13:07:36.885Z,4.83
2019-03-26T13:10:14.172Z,4.40
2019-03-26T13:12:39.169Z,5.25
2019-03-26T13:15:08.952Z,5.75
2019-03-26T13:17:38.096Z,3.52
2019-03-26T13:20:07.283Z,5.17
2019-03-26T13:22:36.434Z,4.17
2019-03-26T13:25:08.289Z,7.50
2019-03-26T13:27:37.395Z,3.12
2019-03-26T13:30:07.668Z,5.50
2019-03-26T13:32:36.809Z,4.37
2019-03-26T13:35:09.150Z,2.92
2019-03-26T13:37:40.286Z,3.33
2019-03-26T13:40:09.502Z,4.70
2019-03-26T13:42:38.554Z,2.15
2019-03-26T13:45:08.426Z,5.08
2019-03-26T13:47:37.510Z,3.87
2019-03-26T13:50:07.623Z,3.83
2019-03-26T13:52:36.686Z,2.40
2019-03-26T13:55:09.708Z,3.15
2019-03-26T13:57:38.803Z,3.20
2019-03-26T14:00:11.523Z,4.37
2019-03-26T14:02:40.579Z,3.35
2019-03-26T14:05:24.318Z,1.75
2019-03-26T14:07:53.278Z,2.13
2019-03-26T14:10:22.410Z,3.65
2019-03-26T14:12:51.547Z,2.12
2019-03-26T14:15:20.702Z,2.45
2019-03-26T14:17:49.768Z,2.00
2019-03-26T14:20:19.037Z,4.95
2019-03-26T14:22:48.162Z,2.25
2019-03-26T14:25:17.289Z,4.78
2019-03-26T14:27:46.350Z,5.00
2019-03-26T14:30:16.052Z,6.58
2019-03-26T14:32:45.190Z,4.37
2019-03-26T14:35:14.396Z,6.72
2019-03-26T14:37:51.158Z,3.22
2019-03-26T14:40:14.555Z,5.15
2019-03-26T14:42:43.633Z,6.30
2019-03-26T14:45:12.893Z,4.28
2019-03-26T14:47:42.032Z,3.08
2019-03-26T14:50:11.182Z,2.90
2019-03-26T14:52:40.277Z,3.30
2019-03-26T14:55:09.634Z,6.33
2019-03-26T14:57:38.678Z,4.60
2019-03-26T15:00:08.226Z,4.53
2019-03-26T15:02:37.274Z,7.67
2019-03-26T15:05:08.346Z,5.28
2019-03-26T15:07:37.453Z,6.00
2019-03-26T15:10:07.591Z,5.60
2019-03-26T15:12:36.629Z,4.97
2019-03-26T15:15:06.304Z,6.30
2019-03-26T15:17:35.412Z,5.00
2019-03-26T15:20:06.163Z,8.40
2019-03-26T15:22:35.202Z,7.45
2019-03-26T15:31:56.291Z,8.80
2019-03-26T15:34:36.052Z,14.63
2019-03-26T15:36:58.202Z,10.40
2019-03-26T15:39:29.955Z,7.78
2019-03-26T15:41:59.197Z,8.35
2019-03-26T15:44:28.337Z,10.13
2019-03-26T15:46:57.520Z,8.05
2019-03-26T15:49:26.651Z,8.85
2019-03-26T15:51:55.788Z,8.25
2019-03-26T15:54:24.949Z,9.95
2019-03-26T15:56:54.098Z,5.75
2019-03-26T15:59:23.166Z,5.95
2019-03-26T16:01:52.292Z,7.17
2019-03-26T16:04:21.362Z,6.95
2019-03-26T16:07:32.964Z,7.55
2019-03-26T16:09:23.972Z,4.85
2019-03-26T16:11:53.114Z,8.75
2019-03-26T16:14:22.248Z,8.43
2019-03-26T16:16:51.308Z,6.70
2019-03-26T16:19:32.233Z,6.58
2019-03-26T16:21:51.216Z,5.50
2019-03-26T16:24:20.281Z,6.85
2019-03-26T16:26:49.337Z,5.15
2019-03-26T16:29:18.606Z,5.50
2019-03-26T16:31:47.697Z,6.78
2019-03-26T16:34:16.764Z,7.05
2019-03-26T16:36:58.531Z,7.58
2019-03-26T16:39:16.645Z,7.90
2019-03-26T16:41:49.360Z,5.45
2019-03-26T16:44:16.579Z,5.87
2019-03-26T16:46:45.717Z,10.28
2019-03-26T16:49:14.945Z,11.22
2019-03-26T16:51:44.075Z,6.55
2019-03-26T16:54:13.205Z,9.20
2019-03-26T16:56:42.323Z,9.20
2019-03-26T16:59:11.411Z,10.93
2019-03-26T17:01:40.562Z,11.30
2019-03-26T17:04:09.709Z,9.73
2019-03-26T17:06:38.832Z,8.48
2019-03-26T17:09:08.346Z,5.72
2019-03-26T17:11:37.538Z,9.18
2019-03-26T17:14:06.698Z,11.75
2019-03-26T17:16:35.836Z,8.23
2019-03-26T17:19:05.023Z,12.65
2019-03-26T17:21:34.173Z,11.05
2019-03-26T17:24:03.342Z,11.65
2019-03-26T17:26:32.579Z,10.63
2019-03-26T17:29:01.728Z,8.75
2019-03-26T17:31:30.790Z,11.28
2019-03-26T17:33:59.894Z,12.68
2019-03-26T17:36:29.020Z,9.45
2019-03-26T17:38:58.082Z,10.45
2019-03-26T17:41:27.195Z,14.58
2019-03-26T17:43:56.413Z,18.62
2019-03-26T17:46:25.547Z,20.60
2019-03-26T17:48:54.672Z,30.65
2019-03-26T17:51:23.781Z,25.50
2019-03-26T17:53:52.848Z,21.62
2019-03-26T17:56:22.016Z,24.40
2019-03-26T17:58:51.223Z,21.00
2019-03-26T18:01:20.336Z,20.10
2019-03-26T18:03:49.578Z,24.10
2019-03-26T18:06:18.680Z,28.83
2019-03-26T18:08:47.756Z,35.43
2019-03-26T18:11:16.821Z,28.60
2019-03-26T18:13:46.121Z,26.33
2019-03-26T18:16:15.205Z,22.87
2019-03-26T18:18:45.876Z,20.92
2019-03-26T18:21:14.944Z,21.62
2019-03-26T18:23:44.048Z,27.37
2019-03-26T18:26:14.939Z,25.62
2019-03-26T18:28:44.054Z,27.17
2019-03-26T18:31:13.174Z,22.48
2019-03-26T18:33:42.205Z,36.33
2019-03-26T18:36:13.068Z,21.23
2019-03-26T18:38:42.128Z,18.05
2019-03-26T18:41:11.166Z,26.37
2019-03-26T18:43:40.227Z,21.55
2019-03-26T18:46:09.344Z,26.30
2019-03-26T18:48:41.381Z,26.52
2019-03-26T18:51:09.397Z,31.62
2019-03-26T18:53:38.445Z,23.73
2019-03-26T18:56:07.521Z,22.32
2019-03-26T18:58:36.579Z,28.30
2019-03-26T19:01:05.624Z,27.70
2019-03-26T19:03:34.682Z,25.02
2019-03-26T19:06:04.100Z,24.12
2019-03-26T19:08:33.209Z,23.12
2019-03-26T19:11:02.282Z,24.60
2019-03-26T19:13:31.323Z,19.02
2019-03-26T19:16:00.440Z,28.23
2019-03-26T19:18:29.552Z,27.55
2019-03-26T19:21:02.330Z,23.77
2019-03-26T19:23:29.465Z,29.55
2019-03-26T19:25:58.526Z,22.17
2019-03-26T19:28:27.573Z,21.20
2019-03-26T19:30:56.660Z,23.73
2019-03-26T19:33:25.733Z,24.90
2019-03-26T19:35:54.795Z,20.62
2019-03-26T19:38:23.861Z,27.93
2019-03-26T19:40:52.977Z,28.12
2019-03-26T19:43:22.021Z,27.77
2019-03-26T19:45:51.143Z,28.90
2019-03-26T19:48:20.241Z,16.80
2019-03-26T19:50:49.323Z,18.15
2019-03-26T19:53:18.439Z,22.05
2019-03-26T19:55:47.481Z,27.32
2019-03-26T19:58:16.558Z,20.10
2019-03-26T20:00:45.677Z,24.12
2019-03-26T20:03:14.750Z,30.57
2019-03-26T20:05:43.798Z,24.55
2019-03-26T20:08:12.955Z,24.55
2019-03-26T20:10:41.986Z,24.57
2019-03-26T20:13:23.283Z,21.05
2019-03-26T20:15:41.861Z,28.40
2019-03-26T20:18:10.931Z,25.80
2019-03-26T20:20:56.784Z,32.90
2019-03-26T20:35:38.444Z,24.72
2019-03-26T20:38:11.126Z,22.50
2019-03-26T20:40:40.373Z,28.40
2019-03-26T20:43:09.497Z,26.93
2019-03-26T20:50:20.699Z,21.82
2019-03-26T20:51:16.939Z,27.73
2019-03-26T20:52:09.902Z,26.95
2019-03-26T20:53:45.997Z,29.00
2019-03-26T20:56:15.183Z,21.57
2019-03-26T20:58:44.580Z,23.70
2019-03-26T21:01:13.728Z,19.52
2019-03-26T21:03:42.780Z,27.42
2019-03-26T21:06:11.954Z,29.52
2019-03-26T21:08:41.141Z,29.07
2019-03-26T21:11:11.846Z,19.52
2019-03-26T21:13:50.773Z,20.45
2019-03-26T21:16:11.784Z,18.77
2019-03-26T21:18:40.972Z,18.90
2019-03-26T21:21:10.082Z,21.37
2019-03-26T21:23:39.275Z,22.25
2019-03-26T21:26:08.405Z,21.23
2019-03-26T21:28:37.628Z,22.82
2019-03-26T21:31:08.001Z,18.05
2019-03-26T21:33:37.178Z,20.57
2019-03-26T21:36:06.424Z,15.70
2019-03-26T21:38:35.609Z,17.85
2019-03-26T21:41:04.746Z,22.32
2019-03-26T21:43:33.910Z,16.85
2019-03-26T21:46:05.376Z,18.67
2019-03-26T21:48:34.548Z,16.77
2019-03-26T21:51:03.709Z,19.50
2019-03-26T21:53:32.875Z,16.05
2019-03-26T21:56:06.891Z,21.60
2019-03-26T21:58:32.856Z,17.67
2019-03-26T22:01:01.979Z,23.05
2019-03-26T22:03:31.146Z,25.08
2019-03-26T22:06:03.454Z,18.60
2019-03-26T22:08:32.589Z,18.85
2019-03-26T22:11:01.725Z,19.50
2019-03-26T22:13:30.831Z,17.40
2019-03-26T22:16:00.028Z,17.40
2019-03-26T22:18:29.179Z,21.37
2019-03-26T22:20:58.328Z,27.05
2019-03-26T22:23:38.022Z,26.65
2019-03-26T22:26:07.142Z,26.35
2019-03-26T22:31:12.862Z,22.87
2019-03-26T22:33:42.004Z,22.58
2019-03-26T22:36:11.032Z,24.75
2019-03-26T22:38:40.229Z,21.68
2019-03-26T22:41:09.327Z,21.37
2019-03-26T22:43:38.489Z,21.37
2019-03-26T22:46:07.850Z,23.83
2019-03-26T22:48:45.162Z,26.42
2019-03-26T22:51:14.342Z,18.67
2019-03-26T22:53:43.480Z,20.27
2019-03-26T22:56:12.626Z,24.60
2019-03-26T22:58:41.800Z,22.95
2019-03-26T23:01:11.030Z,19.45
2019-03-26T23:03:40.262Z,21.33
2019-03-26T23:06:09.445Z,24.10
2019-03-26T23:08:38.602Z,20.90
2019-03-26T23:11:07.713Z,17.07
2019-03-26T23:13:36.877Z,22.20
2019-03-26T23:16:06.209Z,20.60
2019-03-26T23:18:35.484Z,17.12
2019-03-26T23:21:06.291Z,27.80
2019-03-26T23:23:35.406Z,24.43
2019-03-26T23:26:04.546Z,24.72
2019-03-26T23:28:36.920Z,22.58
2019-03-26T23:31:08.047Z,21.02
2019-03-26T23:33:36.972Z,20.77
2019-03-26T23:36:06.150Z,15.28
2019-03-26T23:38:36.415Z,23.62
2019-03-26T23:41:05.539Z,20.50
2019-03-26T23:43:34.741Z,24.63
2019-03-26T23:46:03.882Z,24.00
2019-03-26T23:48:33.045Z,27.17
2019-03-26T23:51:02.185Z,22.50
2019-03-26T23:53:32.553Z,19.57
2019-03-26T23:56:01.629Z,22.13
2019-03-26T23:58:30.819Z,29.35
